• Join FlightAware (Why Join?)
  • Login
  • US Flag 
06:33PM EDT


 

Airport Tracker/Info


-or-


 

Live Flight TrackerFlight Track Log ✈ EJA922 ✈ 13-Aug-2013 ✈ KDTS - KSGR

Flight Track Log - Related Links

Times and Time Zones

All times are in EDT time to prevent confusion due to time zone crossing. See the EJA922 flight status page for this flight to view local times or setup timezone preferences in your user account.

Time Position Orientation Groundspeed Altitude Reporting Facility
EDT Latitude Longitude Course Direction KTS MPH feet Rate Location/Type
03:18PM 30.4672 -86.4522 263° West 222 255 2,700  Level Jacksonville Center
03:19PM 30.5244 -86.4228 24° Northeast 250 288 5,300 2,520 Climbing Jacksonville Center
03:20PM 30.5969 -86.4497 342° North 267 307 7,800 2,700 Climbing Jacksonville Center
03:21PM 30.6753 -86.4817 341° North 279 321 10,700 3,120 Climbing Jacksonville Center
03:22PM 30.7661 -86.5164 342° North 306 352 14,100 3,360 Climbing Jacksonville Center
03:23PM 30.7910 -87.0814 263° West  Level FlightAware Approximate
03:23PM 30.8158 -86.6031 304° West 306 352 17,500  Level Jacksonville Center
03:25PM 30.8264 -86.8092 273° West 306 352 22,900 2,220 Climbing Jacksonville Center
03:26PM 30.8167 -86.9175 264° West 312 359 24,200 1,260 Climbing Jacksonville Center
03:27PM 30.8003 -87.0378 261° West 353 406 25,500 1,260 Climbing Jacksonville Center
03:28PM 30.7628 -87.1592 250° West 382 440 26,800 1,260 Climbing Jacksonville Center
03:29PM 30.7231 -87.2831 250° West 401 461 28,100 1,260 Climbing Jacksonville Center
03:30PM 30.6831 -87.4142 250° West 416 479 29,400 1,260 Climbing Jacksonville Center
03:31PM 30.6408 -87.5447 249° West 430 495 30,700 1,200 Climbing Jacksonville Center
03:32PM 30.6050 -87.6475 248° West 441 507 31,700 1,200 Climbing Houston Center
03:33PM 30.5536 -87.7825 246° West 452 520 33,000 1,080 Climbing Houston Center
03:34PM 30.5011 -87.9211 246° West 465 535 34,000 480 Climbing Houston Center
03:35PM 30.4475 -88.0672 247° West 486 559 34,000 240 Level Houston Center
03:36PM 30.3833 -88.2564 249° West 519 597 34,600 480 Climbing Houston Center
03:37PM 30.3306 -88.4153 249° West 525 604 35,100 420 Climbing Houston Center
03:38PM 30.2764 -88.5769 249° West 535 616 35,500 720 Climbing Houston Center
03:39PM 30.2233 -88.7397 249° West 538 619 36,700 1,320 Climbing Houston Center
03:40PM 30.1853 -88.8981 254° West 515 593 38,300 1,560 Climbing Houston Center
03:41PM 30.1872 -89.0672 271° West 505 581 40,000 1,560 Climbing Houston Center
03:42PM 30.1706 -89.2244 263° West 494 568 41,600 1,260 Climbing Houston Center
03:43PM 30.1400 -89.3800 257° West 494 568 42,600 660 Climbing Houston Center
03:44PM 30.1108 -89.5364 258° West 495 570 43,000 120 Climbing Houston Center
03:45PM 30.0819 -89.6997 258° West 510 587 42,900  Descending Houston Center
03:46PM 30.0492 -89.9003 259° West 521 600 43,000  Climbing Houston Center
03:47PM 30.0492 -90.0692 270° West 526 605 43,000  Level Houston Center
03:48PM 30.0569 -90.2353 273° West 520 598 43,000 -60 Level Houston Center
03:49PM 30.0642 -90.4031 273° West 522 601 42,900  Descending Houston Center
03:50PM 30.0703 -90.5683 272° West 520 598 43,000  Climbing Houston Center
03:51PM 30.0753 -90.7339 272° West 520 598 43,000  Level Houston Center
03:53PM 30.0744 -90.9014 270° West 522 601 43,000  Level Houston Center
03:54PM 30.0300 -91.0603 252° West 522 601 43,000  Level Houston Center
03:55PM 29.9744 -91.2522 252° West 526 605 43,000  Level Houston Center
03:56PM 29.9303 -91.4108 252° West 522 601 43,000 -60 Level Houston Center
03:57PM 29.8839 -91.5706 252° West 525 604 42,900  Descending Houston Center
03:58PM 29.8375 -91.7322 252° West 526 605 43,000  Climbing Houston Center
03:59PM 29.7911 -91.8917 252° West 526 605 43,000  Level Houston Center
04:00PM 29.7456 -92.0514 252° West 526 605 43,000  Level Houston Center
04:01PM 29.6994 -92.2108 252° West 527 606 43,000  Level Houston Center
04:02PM 29.6425 -92.4044 251° West 532 612 43,000  Level Houston Center
04:03PM 29.5956 -92.5631 251° West 526 605 43,000 -600 Level Houston Center
04:04PM 29.5489 -92.7225 251° West 525 604 41,800 -1,500 Descending Houston Center
04:05PM 29.5014 -92.8806 251° West 524 603 39,900 -2,160 Descending Houston Center
04:06PM 29.4533 -93.0408 251° West 527 606 37,400 -2,520 Descending Houston Center
04:07PM 29.4047 -93.2008 251° West 529 609 34,800 -3,000 Descending Houston Center
04:08PM 29.3644 -93.4036 257° West 542 624 31,200 -3,240 Descending Houston Center
04:09PM 29.3508 -93.5756 265° West 541 623 28,200 -2,940 Descending Houston Center
04:10PM 29.3361 -93.7422 264° West 531 611 25,200 -2,760 Descending Houston Center
04:11PM 29.3217 -93.8928 264° West 510 587 22,600 -2,580 Descending Houston Center
04:12PM 29.3086 -94.0433 264° West 488 562 19,900 -2,520 Descending Houston Center
04:13PM 29.2967 -94.1814 264° West 451 519 17,400 -2,700 Descending Houston Center
04:14PM 29.2864 -94.2839 263° West 419 482 15,700 -2,520 Descending Houston Center
04:15PM 29.2739 -94.4100 264° West 393 452 13,500 -2,220 Descending Houston Center
04:15PM 29.2697 -94.4661 265° West 409 471 12,400 -1,740 Descending Houston Center
04:16PM 29.3003 -94.5903 286° West 408 470 10,900 -1,500 Descending Houston Center
04:17PM 29.3214 -94.6581 290° West 406 467 10,100 -900 Descending Houston Center
04:17PM 29.3367 -94.7114 288° West 402 463 10,000 -120 Descending Houston Center
04:18PM 29.3739 -94.8308 290° West 399 459 10,000  Level Houston Center
04:19PM 29.4092 -94.9489 289° West 393 452 10,000 -660 Level Houston Center
04:20PM 29.4186 -95.0408 277° West 288 331 8,700 -1,860 Descending Houston Center
04:21PM 29.4275 -95.1483 275° West 280 322 6,200 -2,220 Descending Houston Center
04:22PM 29.4333 -95.2322 275° West 267 307 4,200 -1,560 Descending Houston Center
04:23PM 29.4642 -95.3042 296° West 254 292 3,000 -600 Descending Houston Center
04:25PM 29.4953 -95.3619 302° West 228 262 3,000  Level Houston Center
04:26PM 29.5269 -95.4206 302° West 219 252 3,000 -60 Level Houston Center
04:27PM 29.5581 -95.4789 302° West 214 246 2,900 -180 Descending Houston Center
04:28PM 29.5814 -95.5406 294° West 211 243 2,700 -660 Descending Houston Center
04:29PM 29.6050 -95.6017 294° West 211 243 1,600 -600 Descending Houston Center
04:30PM 29.6606 -95.6147 348° North 187 215 1,500 -420 Descending Houston Center
04:31PM 29.6656 -95.6531 279° West 155 178 800 -540 Descending Houston Center
04:32PM 29.6342 -95.6611 193° South 147 169 400 -420 Descending Houston Center
04:34PM 29.6222 -95.6565 210° Southwest  Level Estimated